createdAt,value
2022-11-24T00:01:27.742Z,69.08
2022-11-24T00:04:05.482Z,67.68
2022-11-24T00:06:34.520Z,68.28
2022-11-24T00:09:01.833Z,69.79
2022-11-24T00:11:30.778Z,69.33
2022-11-24T00:13:58.532Z,69.03
2022-11-24T00:16:30.730Z,69.63
2022-11-24T00:18:59.656Z,69.66
2022-11-24T00:21:28.610Z,70.34
2022-11-24T00:23:56.162Z,70.58
2022-11-24T00:26:45.964Z,70.82
2022-11-24T00:29:12.811Z,70.90
2022-11-24T00:31:41.721Z,70.39
2022-11-24T00:34:13.906Z,70.21
2022-11-24T00:36:41.727Z,69.06
2022-11-24T00:39:12.051Z,69.48
2022-11-24T00:41:39.412Z,68.48
2022-11-24T00:44:06.901Z,68.46
2022-11-24T00:46:34.399Z,67.91
2022-11-24T00:49:01.802Z,67.85
2022-11-24T00:51:30.918Z,68.31
2022-11-24T00:53:59.118Z,68.40
2022-11-24T00:56:27.431Z,68.02
2022-11-24T00:58:54.240Z,67.54
2022-11-24T01:01:24.411Z,68.18
2022-11-24T01:03:54.555Z,67.54
2022-11-24T01:06:24.785Z,66.82
2022-11-24T01:08:52.723Z,67.78
2022-11-24T01:11:25.543Z,67.59
2022-11-24T01:13:55.646Z,68.47
2022-11-24T01:16:32.545Z,68.43
2022-11-24T01:18:59.680Z,69.01
2022-11-24T01:21:26.519Z,68.29
2022-11-24T01:23:53.333Z,69.24
2022-11-24T01:26:21.932Z,69.06
2022-11-24T01:28:55.090Z,69.07
2022-11-24T01:31:22.838Z,69.45
2022-11-24T01:33:49.634Z,69.41
2022-11-24T01:36:16.435Z,68.87
2022-11-24T01:38:43.201Z,69.67
2022-11-24T01:41:20.705Z,69.37
2022-11-24T01:43:48.587Z,69.17
2022-11-24T01:46:38.281Z,69.00
2022-11-24T01:49:22.772Z,68.95
2022-11-24T01:51:55.791Z,69.28
2022-11-24T01:54:30.833Z,69.87
2022-11-24T01:57:03.105Z,69.67
2022-11-24T01:59:30.591Z,69.10
2022-11-24T02:01:57.777Z,69.96
2022-11-24T02:04:30.009Z,69.36
2022-11-24T02:06:59.357Z,70.06
2022-11-24T02:09:45.109Z,69.72
2022-11-24T02:12:11.950Z,70.13
2022-11-24T02:14:41.859Z,71.11
2022-11-24T02:17:08.785Z,70.80
2022-11-24T02:19:41.547Z,71.61
2022-11-24T02:22:22.934Z,72.28
2022-11-24T02:25:28.127Z,71.24
2022-11-24T02:27:56.579Z,71.31
2022-11-24T02:30:23.859Z,71.75
2022-11-24T02:32:51.729Z,71.84
2022-11-24T02:35:19.228Z,71.70
2022-11-24T02:37:45.988Z,72.29
2022-11-24T02:40:16.338Z,72.64
2022-11-24T02:42:46.143Z,73.48
2022-11-24T02:45:15.263Z,72.71
2022-11-24T02:47:41.962Z,74.09
2022-11-24T02:50:08.889Z,73.69
2022-11-24T02:52:36.238Z,72.90
2022-11-24T02:55:06.141Z,73.49
2022-11-24T02:57:35.973Z,73.55
2022-11-24T03:00:03.673Z,73.03
2022-11-24T03:02:30.319Z,72.79
2022-11-24T03:05:02.204Z,73.83
2022-11-24T03:07:29.049Z,73.35
2022-11-24T03:09:58.983Z,72.17
2022-11-24T03:12:27.310Z,72.89
2022-11-24T03:14:54.003Z,72.68
2022-11-24T03:17:20.811Z,72.21
2022-11-24T03:19:47.494Z,73.06
2022-11-24T03:22:14.726Z,72.43
2022-11-24T03:24:41.469Z,73.12
2022-11-24T03:27:08.174Z,73.31
2022-11-24T03:29:34.904Z,73.29
2022-11-24T03:34:51.826Z,73.25
2022-11-24T03:37:51.528Z,72.85
2022-11-24T03:40:29.927Z,73.75
2022-11-24T03:43:55.530Z,74.33
2022-11-24T03:46:23.884Z,75.71
2022-11-24T03:48:52.254Z,73.79
2022-11-24T03:54:22.979Z,73.25
2022-11-24T03:56:49.818Z,73.73
2022-11-24T03:59:17.053Z,73.60
2022-11-24T04:01:43.839Z,74.16
2022-11-24T04:04:12.137Z,74.04
2022-11-24T04:06:39.645Z,74.38
2022-11-24T04:09:09.476Z,73.77
2022-11-24T04:11:54.786Z,74.32
2022-11-24T04:14:23.642Z,74.59
2022-11-24T04:16:50.359Z,74.28
2022-11-24T04:19:17.162Z,75.11
2022-11-24T04:21:45.937Z,74.74
2022-11-24T04:24:12.654Z,75.20
2022-11-24T04:26:39.319Z,74.69
2022-11-24T04:29:06.168Z,75.02
2022-11-24T04:31:33.200Z,74.62
2022-11-24T04:34:00.255Z,74.82
2022-11-24T04:36:26.958Z,75.05
2022-11-24T04:39:19.960Z,75.87
2022-11-24T04:41:41.353Z,75.89
2022-11-24T04:44:07.967Z,76.19
2022-11-24T04:46:36.817Z,76.75
2022-11-24T04:49:03.564Z,76.34
2022-11-24T04:51:30.383Z,76.38
2022-11-24T04:53:57.176Z,76.09
2022-11-24T04:56:23.949Z,76.40
2022-11-24T04:58:50.657Z,75.89
2022-11-24T05:01:17.402Z,76.48
2022-11-24T05:03:44.323Z,76.72
2022-11-24T05:06:11.399Z,76.13
2022-11-24T05:08:38.076Z,76.02
2022-11-24T05:11:06.683Z,75.82
2022-11-24T05:13:33.575Z,75.17
2022-11-24T05:16:01.839Z,75.33
2022-11-24T05:18:29.054Z,75.04
2022-11-24T05:20:56.108Z,75.63
2022-11-24T05:23:22.877Z,75.69
2022-11-24T05:25:49.674Z,76.24
2022-11-24T05:28:17.093Z,76.06
2022-11-24T05:30:43.856Z,75.72
2022-11-24T05:33:19.312Z,75.14
2022-11-24T05:35:49.115Z,74.42
2022-11-24T05:38:17.723Z,74.21
2022-11-24T05:40:45.939Z,75.42
2022-11-24T05:43:16.906Z,74.78
2022-11-24T05:45:44.800Z,73.56
2022-11-24T05:48:14.731Z,74.40
2022-11-24T05:50:41.877Z,75.36
2022-11-24T05:53:11.133Z,74.69
2022-11-24T05:55:38.703Z,74.64
2022-11-24T05:58:07.587Z,74.40
2022-11-24T06:00:36.206Z,75.11
2022-11-24T06:03:03.809Z,74.88
2022-11-24T06:05:32.766Z,74.22
2022-11-24T06:08:00.827Z,75.09
2022-11-24T06:10:28.475Z,75.35
2022-11-24T06:12:55.898Z,75.29
2022-11-24T06:15:25.257Z,75.26
2022-11-24T06:17:56.048Z,74.05
2022-11-24T06:20:32.269Z,75.25
2022-11-24T06:23:01.770Z,74.97
2022-11-24T06:25:29.121Z,75.26
2022-11-24T06:27:55.952Z,74.35
2022-11-24T06:30:22.628Z,74.84
2022-11-24T06:32:50.099Z,76.08
2022-11-24T06:35:17.249Z,76.54
2022-11-24T06:37:44.025Z,75.82
2022-11-24T06:40:11.122Z,74.92
2022-11-24T06:42:40.479Z,75.24
2022-11-24T06:45:09.556Z,76.09
2022-11-24T06:47:37.026Z,75.00
2022-11-24T06:50:04.156Z,74.05
2022-11-24T06:52:30.911Z,74.96
2022-11-24T06:54:57.580Z,74.58
2022-11-24T06:57:24.380Z,73.72
2022-11-24T06:59:58.570Z,73.06
2022-11-24T07:02:25.331Z,74.14
2022-11-24T07:04:51.991Z,74.06
2022-11-24T07:07:18.846Z,74.46
2022-11-24T07:09:45.509Z,74.25
2022-11-24T07:12:12.228Z,73.82
2022-11-24T07:14:38.931Z,73.54
2022-11-24T07:17:05.607Z,73.58
2022-11-24T07:19:34.393Z,73.21
2022-11-24T07:22:04.271Z,73.00
2022-11-24T07:24:30.889Z,73.71
2022-11-24T07:26:57.549Z,73.51
2022-11-24T07:29:31.314Z,73.36
2022-11-24T07:32:03.711Z,73.23
2022-11-24T07:34:39.267Z,72.90
2022-11-24T07:37:06.123Z,73.00
2022-11-24T07:39:32.921Z,73.16
2022-11-24T07:42:00.495Z,72.70
2022-11-24T07:44:27.443Z,73.00
2022-11-24T07:46:57.268Z,72.34
2022-11-24T07:49:23.937Z,72.46
2022-11-24T07:51:50.644Z,72.68
2022-11-24T07:54:17.357Z,72.86
2022-11-24T07:56:44.022Z,72.72
2022-11-24T07:59:10.823Z,72.54
2022-11-24T08:01:37.631Z,72.46
2022-11-24T08:04:07.033Z,71.37
2022-11-24T08:06:39.692Z,71.58
2022-11-24T08:09:09.976Z,71.36
2022-11-24T08:11:36.833Z,71.70
2022-11-24T08:14:06.067Z,71.71
2022-11-24T08:16:32.822Z,71.33
2022-11-24T08:18:59.515Z,71.51
2022-11-24T08:21:26.664Z,72.31
2022-11-24T08:23:57.533Z,72.21
2022-11-24T08:26:25.562Z,73.04
2022-11-24T08:28:57.959Z,73.04
2022-11-24T08:31:34.908Z,72.95
2022-11-24T08:34:05.927Z,73.08
2022-11-24T08:36:35.744Z,71.77
2022-11-24T08:39:02.790Z,72.11
2022-11-24T08:41:30.209Z,72.35
2022-11-24T08:43:56.874Z,72.55
2022-11-24T08:46:24.106Z,73.22
2022-11-24T08:48:53.605Z,72.69
2022-11-24T08:51:25.058Z,71.25
2022-11-24T08:53:58.344Z,71.08
2022-11-24T08:56:27.145Z,71.81
2022-11-24T08:58:54.840Z,71.70
2022-11-24T09:01:22.614Z,72.25
2022-11-24T09:03:51.233Z,72.13
2022-11-24T09:06:24.999Z,72.10
2022-11-24T09:08:56.307Z,71.76
2022-11-24T09:11:24.767Z,72.13
2022-11-24T09:13:51.766Z,70.98
2022-11-24T09:16:21.476Z,70.83
2022-11-24T09:18:54.559Z,70.99
2022-11-24T09:21:22.119Z,71.43
2022-11-24T09:23:50.689Z,71.85
2022-11-24T09:26:26.663Z,71.40
2022-11-24T09:28:55.152Z,71.60
2022-11-24T09:31:27.817Z,71.10
2022-11-24T09:33:55.837Z,70.53
2022-11-24T09:36:25.622Z,71.38
2022-11-24T09:38:52.577Z,71.76
2022-11-24T09:41:50.209Z,70.35
2022-11-24T09:44:37.874Z,70.62
2022-11-24T09:47:37.795Z,71.13
2022-11-24T09:50:18.514Z,71.47
2022-11-24T09:53:03.596Z,70.71
2022-11-24T09:55:31.635Z,71.02
2022-11-24T09:58:12.585Z,71.00
2022-11-24T10:00:40.387Z,70.92
2022-11-24T10:03:16.294Z,70.65
2022-11-24T10:05:43.561Z,70.23
2022-11-24T10:08:41.036Z,69.43
2022-11-24T10:11:16.640Z,70.28
2022-11-24T10:14:22.355Z,69.56
2022-11-24T10:17:00.273Z,69.49
2022-11-24T10:19:37.343Z,70.93
2022-11-24T10:22:21.342Z,70.14
2022-11-24T10:24:48.045Z,70.59
2022-11-24T10:27:28.677Z,69.78
2022-11-24T10:29:56.235Z,69.05
2022-11-24T10:32:40.239Z,68.05
2022-11-24T10:35:20.330Z,66.84
2022-11-24T10:37:55.518Z,66.79
2022-11-24T10:43:19.170Z,62.33
2022-11-24T10:45:46.179Z,59.82
2022-11-24T10:48:27.273Z,58.49
2022-11-24T10:51:03.111Z,56.21
2022-11-24T10:53:35.591Z,56.58
2022-11-24T10:56:05.014Z,58.48
2022-11-24T10:58:40.145Z,60.04
2022-11-24T11:01:15.850Z,62.09
2022-11-24T11:03:51.125Z,62.50
2022-11-24T11:06:24.075Z,59.81
2022-11-24T11:09:10.732Z,55.56
2022-11-24T11:11:43.010Z,52.48
2022-11-24T11:14:15.353Z,50.14
2022-11-24T11:16:53.423Z,51.36
2022-11-24T11:19:49.823Z,52.65
2022-11-24T11:22:30.895Z,55.14
2022-11-24T11:25:06.131Z,57.46
2022-11-24T11:27:32.952Z,58.37
2022-11-24T11:36:13.763Z,61.24
2022-11-24T11:38:43.740Z,61.54
2022-11-24T11:41:20.650Z,61.58
2022-11-24T11:43:53.492Z,61.60
2022-11-24T11:46:21.242Z,62.46
2022-11-24T11:48:48.340Z,61.81
2022-11-24T11:51:52.769Z,62.40
2022-11-24T11:54:25.637Z,63.82
2022-11-24T11:57:11.319Z,63.34
2022-11-24T11:59:46.895Z,63.03
2022-11-24T12:02:16.554Z,63.39
2022-11-24T12:04:53.692Z,63.03
2022-11-24T12:07:56.194Z,62.34
2022-11-24T12:10:38.991Z,62.81
2022-11-24T12:13:26.376Z,62.63
2022-11-24T12:15:56.979Z,62.71
2022-11-24T12:18:57.684Z,62.39
2022-11-24T12:21:38.950Z,62.10
2022-11-24T12:24:16.227Z,60.45
2022-11-24T12:27:05.788Z,55.42
2022-11-24T12:29:41.733Z,53.25
2022-11-24T12:32:19.992Z,52.38
2022-11-24T12:34:53.036Z,51.02
2022-11-24T12:37:37.212Z,53.56
2022-11-24T12:40:23.524Z,55.12
2022-11-24T12:43:03.392Z,56.68
2022-11-24T12:45:42.918Z,58.59
2022-11-24T12:48:16.465Z,58.93
2022-11-24T12:50:44.448Z,60.40
2022-11-24T12:53:16.209Z,61.50
2022-11-24T12:55:43.867Z,61.63
2022-11-24T12:58:14.044Z,61.80
2022-11-24T13:00:57.938Z,62.28
2022-11-24T13:03:43.347Z,61.99
2022-11-24T13:06:28.328Z,61.27
2022-11-24T13:08:56.784Z,61.87
2022-11-24T13:11:23.518Z,62.01
2022-11-24T13:14:00.665Z,61.80
2022-11-24T13:16:38.675Z,60.68
2022-11-24T13:19:17.708Z,61.23
2022-11-24T13:21:45.570Z,60.46
2022-11-24T13:24:19.549Z,59.69
2022-11-24T13:26:54.732Z,59.24
2022-11-24T13:29:33.715Z,58.27
2022-11-24T13:32:06.558Z,56.99
2022-11-24T13:34:39.741Z,54.33
2022-11-24T13:37:35.421Z,54.41
2022-11-24T13:40:22.982Z,55.69
2022-11-24T13:43:01.412Z,55.63
2022-11-24T13:45:41.214Z,54.59
2022-11-24T13:48:21.017Z,53.59
2022-11-24T13:50:52.108Z,52.64
2022-11-24T13:53:32.140Z,51.09
2022-11-24T13:56:11.666Z,49.59
2022-11-24T13:58:59.813Z,53.18
2022-11-24T14:01:30.235Z,54.14
2022-11-24T14:04:36.003Z,54.50
2022-11-24T14:09:53.478Z,57.37
2022-11-24T14:12:27.860Z,58.70
2022-11-24T14:15:25.376Z,58.42
2022-11-24T14:17:52.090Z,58.85
2022-11-24T14:20:24.862Z,59.65
2022-11-24T14:22:52.138Z,61.16
2022-11-24T14:25:32.440Z,61.68
2022-11-24T14:28:15.526Z,61.75
2022-11-24T14:30:42.400Z,61.92
2022-11-24T14:33:18.569Z,61.89
2022-11-24T14:35:47.651Z,61.77
2022-11-24T14:38:14.622Z,62.99
2022-11-24T14:40:51.717Z,62.41
2022-11-24T14:43:31.904Z,62.09
2022-11-24T14:46:06.276Z,62.29
2022-11-24T14:48:53.099Z,61.82
2022-11-24T14:51:35.816Z,63.03
2022-11-24T14:54:13.684Z,62.85
2022-11-24T14:56:40.878Z,62.80
2022-11-24T14:59:25.867Z,63.22
2022-11-24T15:01:52.761Z,63.39
2022-11-24T15:05:02.618Z,62.98
2022-11-24T15:07:30.685Z,63.79
2022-11-24T15:09:59.850Z,64.20
2022-11-24T15:12:36.243Z,64.84
2022-11-24T15:15:06.794Z,64.31
2022-11-24T15:17:34.217Z,64.41
2022-11-24T15:20:09.321Z,64.32
2022-11-24T15:22:42.029Z,64.04
2022-11-24T15:25:36.845Z,63.57
2022-11-24T15:28:03.648Z,64.33
2022-11-24T15:30:34.821Z,65.51
2022-11-24T15:33:02.091Z,66.38
2022-11-24T15:35:32.826Z,66.16
2022-11-24T15:37:59.605Z,66.77
2022-11-24T15:40:26.343Z,66.60
2022-11-24T15:42:55.103Z,66.03
2022-11-24T15:45:23.978Z,66.26
2022-11-24T15:47:59.966Z,65.01
2022-11-24T15:50:28.774Z,64.76
2022-11-24T15:52:57.269Z,65.13
2022-11-24T15:55:24.072Z,65.03
2022-11-24T15:57:50.794Z,65.47
2022-11-24T16:00:20.479Z,65.11
2022-11-24T16:02:47.667Z,64.79
2022-11-24T16:05:15.843Z,64.58
2022-11-24T16:07:43.973Z,64.72
2022-11-24T16:10:25.925Z,65.56
2022-11-24T16:12:54.433Z,65.71
2022-11-24T16:21:26.227Z,65.05
2022-11-24T16:24:00.974Z,64.84
2022-11-24T16:26:33.364Z,65.54
2022-11-24T16:32:10.953Z,66.72
2022-11-24T16:34:37.705Z,66.53
2022-11-24T16:37:04.468Z,65.68
2022-11-24T16:39:31.218Z,66.05
2022-11-24T16:42:00.908Z,66.02
2022-11-24T16:44:27.767Z,65.00
2022-11-24T16:46:54.875Z,64.50
2022-11-24T16:49:22.088Z,63.92
2022-11-24T16:51:51.409Z,64.07
2022-11-24T16:54:18.298Z,63.91
2022-11-24T16:56:44.999Z,63.38
2022-11-24T16:59:11.981Z,64.92
2022-11-24T17:01:40.378Z,64.83
2022-11-24T17:04:12.456Z,65.40
2022-11-24T17:06:45.628Z,66.30
2022-11-24T17:09:12.356Z,66.71
2022-11-24T17:11:39.048Z,66.41
2022-11-24T17:14:06.069Z,65.54
2022-11-24T17:16:37.601Z,67.08
2022-11-24T17:19:05.594Z,67.01
2022-11-24T17:21:35.469Z,68.00
2022-11-24T17:24:05.609Z,67.75
2022-11-24T17:26:33.281Z,67.06
2022-11-24T17:29:02.170Z,66.55
2022-11-24T17:31:37.481Z,67.40
2022-11-24T17:34:05.250Z,68.32
2022-11-24T17:36:33.673Z,69.77
2022-11-24T17:39:01.269Z,70.17
2022-11-24T17:41:32.142Z,70.29
2022-11-24T17:43:58.930Z,71.04
2022-11-24T17:46:27.296Z,70.51
2022-11-24T17:48:54.432Z,70.36
2022-11-24T17:51:23.545Z,69.51
2022-11-24T17:53:52.226Z,68.85
2022-11-24T17:56:23.701Z,68.50
2022-11-24T17:58:55.312Z,66.43
2022-11-24T18:01:22.668Z,66.04
2022-11-24T18:03:53.518Z,66.27
2022-11-24T18:06:21.555Z,67.36
2022-11-24T18:08:48.323Z,70.62
2022-11-24T18:11:28.849Z,68.31
2022-11-24T18:14:01.093Z,68.87
2022-11-24T18:16:34.814Z,70.34
2022-11-24T18:19:11.664Z,69.55
2022-11-24T18:21:43.828Z,69.53
2022-11-24T18:24:12.560Z,69.89
2022-11-24T18:26:44.620Z,69.39
2022-11-24T18:29:11.933Z,70.20
2022-11-24T18:31:39.264Z,69.75
2022-11-24T18:34:06.778Z,66.84
2022-11-24T18:36:34.917Z,66.63
2022-11-24T18:39:03.883Z,66.74
2022-11-24T18:41:30.755Z,65.80
2022-11-24T18:44:03.167Z,65.69
2022-11-24T18:46:29.981Z,66.50
2022-11-24T18:48:56.853Z,66.99
2022-11-24T18:51:23.689Z,67.23
2022-11-24T18:53:54.589Z,70.52
2022-11-24T18:56:22.501Z,69.21
2022-11-24T18:58:53.813Z,68.26
2022-11-24T19:01:24.190Z,66.59
2022-11-24T19:03:56.360Z,67.73
2022-11-24T19:06:32.371Z,69.07
2022-11-24T19:09:02.185Z,67.91
2022-11-24T19:11:35.296Z,70.12
2022-11-24T19:14:07.438Z,68.56
2022-11-24T19:16:34.401Z,68.05
2022-11-24T19:19:02.633Z,68.39
2022-11-24T19:21:34.573Z,68.27
2022-11-24T19:24:05.255Z,68.57
2022-11-24T19:26:36.912Z,68.73
2022-11-24T19:29:07.219Z,68.81
2022-11-24T19:31:35.347Z,70.27
2022-11-24T19:34:08.005Z,71.24
2022-11-24T19:36:35.205Z,71.26
2022-11-24T19:39:04.876Z,70.87
2022-11-24T19:41:35.021Z,69.90
2022-11-24T19:44:01.979Z,69.07
2022-11-24T19:46:29.832Z,69.82
2022-11-24T19:49:04.713Z,69.54
2022-11-24T19:51:33.545Z,70.39
2022-11-24T19:54:00.694Z,70.06
2022-11-24T19:56:30.037Z,70.40
2022-11-24T19:58:59.988Z,70.72
2022-11-24T20:01:32.008Z,70.37
2022-11-24T20:04:00.345Z,69.62
2022-11-24T20:06:29.606Z,70.35
2022-11-24T20:08:58.888Z,70.71
2022-11-24T20:11:25.630Z,70.23
2022-11-24T20:13:52.445Z,69.61
2022-11-24T20:16:30.017Z,70.25
2022-11-24T20:18:58.830Z,69.82
2022-11-24T20:21:33.896Z,69.74
2022-11-24T20:24:15.422Z,69.24
2022-11-24T20:26:45.090Z,69.99
2022-11-24T20:29:13.391Z,69.30
2022-11-24T20:31:48.348Z,69.87
2022-11-24T20:34:15.679Z,70.06
2022-11-24T20:36:45.674Z,70.27
2022-11-24T20:39:19.006Z,70.12
2022-11-24T20:41:45.956Z,70.03
2022-11-24T20:44:15.601Z,69.95
2022-11-24T20:46:44.392Z,69.65
2022-11-24T20:49:14.644Z,70.06
2022-11-24T20:51:44.263Z,69.86
2022-11-24T20:54:15.974Z,69.27
2022-11-24T20:56:44.723Z,69.41
2022-11-24T20:59:35.904Z,69.40
2022-11-24T21:02:02.743Z,68.95
2022-11-24T21:04:29.466Z,69.00
2022-11-24T21:06:56.470Z,69.48
2022-11-24T21:09:23.409Z,69.78
2022-11-24T21:11:50.224Z,69.45
2022-11-24T21:14:16.917Z,69.41
2022-11-24T21:16:44.727Z,69.37
2022-11-24T21:19:14.187Z,69.74
2022-11-24T21:21:42.784Z,69.92
2022-11-24T21:24:17.606Z,69.74
2022-11-24T21:26:47.831Z,69.45
2022-11-24T21:29:17.336Z,70.30
2022-11-24T21:31:47.674Z,70.07
2022-11-24T21:34:16.471Z,69.88
2022-11-24T21:36:45.152Z,70.97
2022-11-24T21:39:13.903Z,69.60
2022-11-24T21:41:41.465Z,69.31
2022-11-24T21:44:08.968Z,67.72
2022-11-24T21:46:42.455Z,68.30
2022-11-24T21:49:15.791Z,68.07
2022-11-24T21:51:44.718Z,68.37
2022-11-24T21:54:11.398Z,66.06
2022-11-24T21:56:41.039Z,65.63
2022-11-24T21:59:07.787Z,65.89
2022-11-24T22:01:34.574Z,66.91
2022-11-24T22:04:02.822Z,66.28
2022-11-24T22:06:29.825Z,66.03
2022-11-24T22:08:56.509Z,66.15
2022-11-24T22:11:24.858Z,65.80
2022-11-24T22:13:52.239Z,66.70
2022-11-24T22:16:21.694Z,67.04
2022-11-24T22:18:48.974Z,65.86
2022-11-24T22:21:19.094Z,66.48
2022-11-24T22:23:46.357Z,66.03
2022-11-24T22:26:18.888Z,66.45
2022-11-24T22:28:46.455Z,67.01
2022-11-24T22:31:17.750Z,68.38
2022-11-24T22:33:45.082Z,67.07
2022-11-24T22:36:15.662Z,68.08
2022-11-24T22:38:43.042Z,66.75
2022-11-24T22:41:15.361Z,67.08
2022-11-24T22:43:44.055Z,67.15
2022-11-24T22:46:13.541Z,67.03
2022-11-24T22:48:45.093Z,66.44
2022-11-24T22:51:14.603Z,67.50
2022-11-24T22:53:42.202Z,68.10
2022-11-24T22:56:12.042Z,67.00
2022-11-24T22:58:42.216Z,67.90
2022-11-24T23:01:12.591Z,68.02
2022-11-24T23:03:40.097Z,66.51
2022-11-24T23:06:10.763Z,66.90
2022-11-24T23:08:39.843Z,66.45
2022-11-24T23:11:12.548Z,67.53
2022-11-24T23:13:39.605Z,67.78
2022-11-24T23:16:15.417Z,68.17
2022-11-24T23:18:43.434Z,67.46
2022-11-24T23:21:21.692Z,67.86
2022-11-24T23:23:48.722Z,66.81
2022-11-24T23:26:27.090Z,66.63
2022-11-24T23:28:57.964Z,66.63
2022-11-24T23:31:29.802Z,67.36
2022-11-24T23:34:02.471Z,66.82
2022-11-24T23:36:30.766Z,66.35
2022-11-24T23:39:05.735Z,68.29
2022-11-24T23:41:32.569Z,67.79
2022-11-24T23:44:00.226Z,68.01
2022-11-24T23:46:28.266Z,68.75
2022-11-24T23:48:55.968Z,68.01
2022-11-24T23:51:23.651Z,67.23
2022-11-24T23:53:50.996Z,68.09
2022-11-24T23:56:22.546Z,67.84
2022-11-24T23:58:49.598Z,67.37
